sensor_id;sensor_type;location;lat;lon;timestamp;temperature;humidity
68051;DHT22;54839;51.364;7.246;2024-01-30T00:01:36;7.20;99.90
68051;DHT22;54839;51.364;7.246;2024-01-30T00:04:02;7.20;99.90
68051;DHT22;54839;51.364;7.246;2024-01-30T00:06:28;7.20;99.90
68051;DHT22;54839;51.364;7.246;2024-01-30T00:08:53;7.20;99.90
68051;DHT22;54839;51.364;7.246;2024-01-30T00:11:19;7.20;99.90
68051;DHT22;54839;51.364;7.246;2024-01-30T00:13:45;7.20;99.90
68051;DHT22;54839;51.364;7.246;2024-01-30T00:16:24;7.20;99.90
68051;DHT22;54839;51.364;7.246;2024-01-30T00:18:53;7.10;99.90
68051;DHT22;54839;51.364;7.246;2024-01-30T00:21:19;7.20;99.90
68051;DHT22;54839;51.364;7.246;2024-01-30T00:23:45;7.20;99.90
68051;DHT22;54839;51.364;7.246;2024-01-30T00:26:10;7.20;99.90
68051;DHT22;54839;51.364;7.246;2024-01-30T00:28:37;7.20;99.90
68051;DHT22;54839;51.364;7.246;2024-01-30T00:31:03;7.20;99.90
68051;DHT22;54839;51.364;7.246;2024-01-30T00:33:29;7.00;99.90
68051;DHT22;54839;51.364;7.246;2024-01-30T00:35:55;7.10;99.90
68051;DHT22;54839;51.364;7.246;2024-01-30T00:38:21;7.10;99.90
68051;DHT22;54839;51.364;7.246;2024-01-30T00:40:46;7.00;99.90
68051;DHT22;54839;51.364;7.246;2024-01-30T00:43:12;7.20;99.90
68051;DHT22;54839;51.364;7.246;2024-01-30T00:45:38;7.20;99.90
68051;DHT22;54839;51.364;7.246;2024-01-30T00:48:04;7.20;99.90
68051;DHT22;54839;51.364;7.246;2024-01-30T00:50:29;7.20;99.90
68051;DHT22;54839;51.364;7.246;2024-01-30T00:52:55;7.20;99.90
68051;DHT22;54839;51.364;7.246;2024-01-30T00:55:21;7.10;99.90
68051;DHT22;54839;51.364;7.246;2024-01-30T00:57:46;7.20;99.90
68051;DHT22;54839;51.364;7.246;2024-01-30T01:00:13;7.10;99.90
68051;DHT22;54839;51.364;7.246;2024-01-30T01:02:42;7.10;99.90
68051;DHT22;54839;51.364;7.246;2024-01-30T01:05:08;7.00;99.90
68051;DHT22;54839;51.364;7.246;2024-01-30T01:07:34;7.00;99.90
68051;DHT22;54839;51.364;7.246;2024-01-30T01:10:00;7.00;99.90
68051;DHT22;54839;51.364;7.246;2024-01-30T01:12:25;7.10;99.90
68051;DHT22;54839;51.364;7.246;2024-01-30T01:14:51;7.00;99.90
68051;DHT22;54839;51.364;7.246;2024-01-30T01:17:17;7.10;99.90
68051;DHT22;54839;51.364;7.246;2024-01-30T01:19:44;7.10;99.90
68051;DHT22;54839;51.364;7.246;2024-01-30T01:22:10;6.90;99.90
68051;DHT22;54839;51.364;7.246;2024-01-30T01:24:36;7.00;99.90
68051;DHT22;54839;51.364;7.246;2024-01-30T01:27:02;7.00;99.90
68051;DHT22;54839;51.364;7.246;2024-01-30T01:29:28;7.00;99.90
68051;DHT22;54839;51.364;7.246;2024-01-30T01:31:57;6.90;99.90
68051;DHT22;54839;51.364;7.246;2024-01-30T01:34:24;7.00;99.90
68051;DHT22;54839;51.364;7.246;2024-01-30T01:36:50;7.00;99.90
68051;DHT22;54839;51.364;7.246;2024-01-30T01:39:16;6.90;99.90
68051;DHT22;54839;51.364;7.246;2024-01-30T01:41:42;6.90;99.90
68051;DHT22;54839;51.364;7.246;2024-01-30T01:44:08;6.90;99.90
68051;DHT22;54839;51.364;7.246;2024-01-30T01:46:34;6.80;99.90
68051;DHT22;54839;51.364;7.246;2024-01-30T01:49:04;6.80;99.90
68051;DHT22;54839;51.364;7.246;2024-01-30T01:51:31;6.90;99.90
68051;DHT22;54839;51.364;7.246;2024-01-30T01:54:00;6.90;99.90
68051;DHT22;54839;51.364;7.246;2024-01-30T01:56:27;6.90;99.90
68051;DHT22;54839;51.364;7.246;2024-01-30T01:58:55;6.90;99.90
68051;DHT22;54839;51.364;7.246;2024-01-30T02:01:21;6.80;99.90
68051;DHT22;54839;51.364;7.246;2024-01-30T02:03:48;6.80;99.90
68051;DHT22;54839;51.364;7.246;2024-01-30T02:06:15;6.90;99.90
68051;DHT22;54839;51.364;7.246;2024-01-30T02:08:41;6.80;99.90
68051;DHT22;54839;51.364;7.246;2024-01-30T02:11:07;6.80;99.90
68051;DHT22;54839;51.364;7.246;2024-01-30T02:13:33;6.80;99.90
68051;DHT22;54839;51.364;7.246;2024-01-30T02:16:00;6.90;99.90
68051;DHT22;54839;51.364;7.246;2024-01-30T02:18:26;6.80;99.90
68051;DHT22;54839;51.364;7.246;2024-01-30T02:20:53;6.90;99.90
68051;DHT22;54839;51.364;7.246;2024-01-30T02:23:20;6.90;99.90
68051;DHT22;54839;51.364;7.246;2024-01-30T02:25:45;6.90;99.90
68051;DHT22;54839;51.364;7.246;2024-01-30T02:28:14;6.80;99.90
68051;DHT22;54839;51.364;7.246;2024-01-30T02:30:43;6.80;99.90
68051;DHT22;54839;51.364;7.246;2024-01-30T02:33:08;6.80;99.90
68051;DHT22;54839;51.364;7.246;2024-01-30T02:35:34;6.90;99.90
68051;DHT22;54839;51.364;7.246;2024-01-30T02:38:00;6.90;99.90
68051;DHT22;54839;51.364;7.246;2024-01-30T02:40:26;6.90;99.90
68051;DHT22;54839;51.364;7.246;2024-01-30T02:42:52;6.90;99.90
68051;DHT22;54839;51.364;7.246;2024-01-30T02:45:18;7.00;99.90
68051;DHT22;54839;51.364;7.246;2024-01-30T02:47:43;6.90;99.90
68051;DHT22;54839;51.364;7.246;2024-01-30T02:50:09;7.00;99.90
68051;DHT22;54839;51.364;7.246;2024-01-30T02:52:35;6.90;99.90
68051;DHT22;54839;51.364;7.246;2024-01-30T02:55:01;7.00;99.90
68051;DHT22;54839;51.364;7.246;2024-01-30T02:57:28;7.10;99.90
68051;DHT22;54839;51.364;7.246;2024-01-30T02:59:54;7.20;99.90
68051;DHT22;54839;51.364;7.246;2024-01-30T03:02:20;7.10;99.90
68051;DHT22;54839;51.364;7.246;2024-01-30T03:04:46;7.10;99.90
68051;DHT22;54839;51.364;7.246;2024-01-30T03:07:12;7.10;99.90
68051;DHT22;54839;51.364;7.246;2024-01-30T03:09:38;7.20;99.90
68051;DHT22;54839;51.364;7.246;2024-01-30T03:12:04;7.10;99.90
68051;DHT22;54839;51.364;7.246;2024-01-30T03:14:33;7.20;99.90
68051;DHT22;54839;51.364;7.246;2024-01-30T03:16:58;7.20;99.90
68051;DHT22;54839;51.364;7.246;2024-01-30T03:19:24;7.20;99.90
68051;DHT22;54839;51.364;7.246;2024-01-30T03:21:50;7.30;99.90
68051;DHT22;54839;51.364;7.246;2024-01-30T03:24:16;7.30;99.90
68051;DHT22;54839;51.364;7.246;2024-01-30T03:26:43;7.30;99.90
68051;DHT22;54839;51.364;7.246;2024-01-30T03:29:08;7.30;99.90
68051;DHT22;54839;51.364;7.246;2024-01-30T03:31:34;7.30;99.90
68051;DHT22;54839;51.364;7.246;2024-01-30T03:34:01;7.40;99.90
68051;DHT22;54839;51.364;7.246;2024-01-30T03:36:26;7.30;99.90
68051;DHT22;54839;51.364;7.246;2024-01-30T03:38:52;7.40;99.90
68051;DHT22;54839;51.364;7.246;2024-01-30T03:41:18;7.40;99.90
68051;DHT22;54839;51.364;7.246;2024-01-30T03:43:44;7.30;99.90
68051;DHT22;54839;51.364;7.246;2024-01-30T03:46:11;7.40;99.90
68051;DHT22;54839;51.364;7.246;2024-01-30T03:48:37;7.30;99.90
68051;DHT22;54839;51.364;7.246;2024-01-30T03:51:03;7.30;99.90
68051;DHT22;54839;51.364;7.246;2024-01-30T03:53:30;7.40;99.90
68051;DHT22;54839;51.364;7.246;2024-01-30T03:55:55;7.30;99.90
68051;DHT22;54839;51.364;7.246;2024-01-30T03:58:21;7.30;99.90
68051;DHT22;54839;51.364;7.246;2024-01-30T04:00:47;7.30;99.90
68051;DHT22;54839;51.364;7.246;2024-01-30T04:03:14;7.30;99.90
68051;DHT22;54839;51.364;7.246;2024-01-30T04:05:40;7.30;99.90
68051;DHT22;54839;51.364;7.246;2024-01-30T04:08:07;7.20;99.90
68051;DHT22;54839;51.364;7.246;2024-01-30T04:10:33;7.20;99.90
68051;DHT22;54839;51.364;7.246;2024-01-30T04:12:58;7.10;99.90
68051;DHT22;54839;51.364;7.246;2024-01-30T04:15:25;7.20;99.90
68051;DHT22;54839;51.364;7.246;2024-01-30T04:17:51;7.20;99.90
68051;DHT22;54839;51.364;7.246;2024-01-30T04:20:17;7.10;99.90
68051;DHT22;54839;51.364;7.246;2024-01-30T04:22:46;7.20;99.90
68051;DHT22;54839;51.364;7.246;2024-01-30T04:25:12;7.30;99.90
68051;DHT22;54839;51.364;7.246;2024-01-30T04:27:38;7.30;99.90
68051;DHT22;54839;51.364;7.246;2024-01-30T04:30:04;7.40;99.90
68051;DHT22;54839;51.364;7.246;2024-01-30T04:32:31;7.30;99.90
68051;DHT22;54839;51.364;7.246;2024-01-30T04:34:57;7.30;99.90
68051;DHT22;54839;51.364;7.246;2024-01-30T04:37:23;7.30;99.90
68051;DHT22;54839;51.364;7.246;2024-01-30T04:39:49;7.30;99.90
68051;DHT22;54839;51.364;7.246;2024-01-30T04:42:14;7.20;99.90
68051;DHT22;54839;51.364;7.246;2024-01-30T04:44:40;7.20;99.90
68051;DHT22;54839;51.364;7.246;2024-01-30T04:47:05;7.10;99.90
68051;DHT22;54839;51.364;7.246;2024-01-30T04:49:34;7.10;99.90
68051;DHT22;54839;51.364;7.246;2024-01-30T04:52:00;7.20;99.90
68051;DHT22;54839;51.364;7.246;2024-01-30T04:54:26;7.10;99.90
68051;DHT22;54839;51.364;7.246;2024-01-30T04:56:51;7.00;99.90
68051;DHT22;54839;51.364;7.246;2024-01-30T04:59:17;7.00;99.90
68051;DHT22;54839;51.364;7.246;2024-01-30T05:01:43;7.00;99.90
68051;DHT22;54839;51.364;7.246;2024-01-30T05:04:09;7.10;99.90
68051;DHT22;54839;51.364;7.246;2024-01-30T05:06:35;7.20;99.90
68051;DHT22;54839;51.364;7.246;2024-01-30T05:09:01;7.20;99.90
68051;DHT22;54839;51.364;7.246;2024-01-30T05:11:26;7.20;99.90
68051;DHT22;54839;51.364;7.246;2024-01-30T05:13:52;7.30;99.90
68051;DHT22;54839;51.364;7.246;2024-01-30T05:16:17;7.10;99.90
68051;DHT22;54839;51.364;7.246;2024-01-30T05:18:43;7.20;99.90
68051;DHT22;54839;51.364;7.246;2024-01-30T05:21:10;7.10;99.90
68051;DHT22;54839;51.364;7.246;2024-01-30T05:23:36;7.20;99.90
68051;DHT22;54839;51.364;7.246;2024-01-30T05:26:02;7.00;99.90
68051;DHT22;54839;51.364;7.246;2024-01-30T05:28:29;7.10;99.90
68051;DHT22;54839;51.364;7.246;2024-01-30T05:30:56;7.20;99.90
68051;DHT22;54839;51.364;7.246;2024-01-30T05:33:22;7.20;99.90
68051;DHT22;54839;51.364;7.246;2024-01-30T05:35:47;7.10;99.90
68051;DHT22;54839;51.364;7.246;2024-01-30T05:38:15;7.10;99.90
68051;DHT22;54839;51.364;7.246;2024-01-30T05:40:41;7.10;99.90
68051;DHT22;54839;51.364;7.246;2024-01-30T05:43:06;7.10;99.90
68051;DHT22;54839;51.364;7.246;2024-01-30T05:45:33;7.10;99.90
68051;DHT22;54839;51.364;7.246;2024-01-30T05:48:04;7.30;99.90
68051;DHT22;54839;51.364;7.246;2024-01-30T05:50:30;7.10;99.90
68051;DHT22;54839;51.364;7.246;2024-01-30T05:52:56;7.10;99.90
68051;DHT22;54839;51.364;7.246;2024-01-30T05:55:22;7.20;99.90
68051;DHT22;54839;51.364;7.246;2024-01-30T05:57:48;7.20;99.90
68051;DHT22;54839;51.364;7.246;2024-01-30T06:00:15;7.10;99.90
68051;DHT22;54839;51.364;7.246;2024-01-30T06:02:40;7.10;99.90
68051;DHT22;54839;51.364;7.246;2024-01-30T06:05:07;7.10;99.90
68051;DHT22;54839;51.364;7.246;2024-01-30T06:07:32;7.10;99.90
68051;DHT22;54839;51.364;7.246;2024-01-30T06:09:58;7.10;99.90
68051;DHT22;54839;51.364;7.246;2024-01-30T06:12:26;7.00;99.90
68051;DHT22;54839;51.364;7.246;2024-01-30T06:14:52;7.10;99.90
68051;DHT22;54839;51.364;7.246;2024-01-30T06:17:19;7.20;99.90
68051;DHT22;54839;51.364;7.246;2024-01-30T06:19:45;7.20;99.90
68051;DHT22;54839;51.364;7.246;2024-01-30T06:22:11;7.40;99.90
68051;DHT22;54839;51.364;7.246;2024-01-30T06:24:36;7.30;99.90
68051;DHT22;54839;51.364;7.246;2024-01-30T06:27:02;7.30;99.90
68051;DHT22;54839;51.364;7.246;2024-01-30T06:29:28;7.30;99.90
68051;DHT22;54839;51.364;7.246;2024-01-30T06:31:54;7.30;99.90
68051;DHT22;54839;51.364;7.246;2024-01-30T06:34:20;7.40;99.90
68051;DHT22;54839;51.364;7.246;2024-01-30T06:36:45;7.30;99.90
68051;DHT22;54839;51.364;7.246;2024-01-30T06:39:11;7.40;99.90
68051;DHT22;54839;51.364;7.246;2024-01-30T06:41:36;7.30;99.90
68051;DHT22;54839;51.364;7.246;2024-01-30T06:44:02;7.40;99.90
68051;DHT22;54839;51.364;7.246;2024-01-30T06:46:29;7.40;99.90
68051;DHT22;54839;51.364;7.246;2024-01-30T06:48:55;7.40;99.90
68051;DHT22;54839;51.364;7.246;2024-01-30T06:51:21;7.50;99.90
68051;DHT22;54839;51.364;7.246;2024-01-30T06:53:46;7.50;99.90
68051;DHT22;54839;51.364;7.246;2024-01-30T06:56:12;7.50;99.90
68051;DHT22;54839;51.364;7.246;2024-01-30T06:58:38;7.60;99.90
68051;DHT22;54839;51.364;7.246;2024-01-30T07:01:04;7.60;99.90
68051;DHT22;54839;51.364;7.246;2024-01-30T07:03:30;7.60;99.90
68051;DHT22;54839;51.364;7.246;2024-01-30T07:05:55;7.60;99.90
68051;DHT22;54839;51.364;7.246;2024-01-30T07:08:21;7.60;99.90
68051;DHT22;54839;51.364;7.246;2024-01-30T07:10:47;7.60;99.90
68051;DHT22;54839;51.364;7.246;2024-01-30T07:13:13;7.70;99.90
68051;DHT22;54839;51.364;7.246;2024-01-30T07:15:41;7.70;99.90
68051;DHT22;54839;51.364;7.246;2024-01-30T07:18:07;7.70;99.90
68051;DHT22;54839;51.364;7.246;2024-01-30T07:20:33;7.80;99.90
68051;DHT22;54839;51.364;7.246;2024-01-30T07:22:58;7.70;99.90
68051;DHT22;54839;51.364;7.246;2024-01-30T07:25:24;7.90;99.90
68051;DHT22;54839;51.364;7.246;2024-01-30T07:27:52;7.70;99.90
68051;DHT22;54839;51.364;7.246;2024-01-30T07:30:19;7.80;99.90
68051;DHT22;54839;51.364;7.246;2024-01-30T07:32:47;7.90;99.90
68051;DHT22;54839;51.364;7.246;2024-01-30T07:35:13;7.90;99.90
68051;DHT22;54839;51.364;7.246;2024-01-30T07:37:39;8.10;99.90
68051;DHT22;54839;51.364;7.246;2024-01-30T07:40:06;8.10;99.90
68051;DHT22;54839;51.364;7.246;2024-01-30T07:42:32;8.10;99.90
68051;DHT22;54839;51.364;7.246;2024-01-30T07:44:59;8.20;99.90
68051;DHT22;54839;51.364;7.246;2024-01-30T07:47:25;8.30;99.90
68051;DHT22;54839;51.364;7.246;2024-01-30T07:49:51;8.30;99.90
68051;DHT22;54839;51.364;7.246;2024-01-30T07:52:17;8.40;99.90
68051;DHT22;54839;51.364;7.246;2024-01-30T07:54:42;8.50;99.90
68051;DHT22;54839;51.364;7.246;2024-01-30T07:57:08;8.40;99.90
68051;DHT22;54839;51.364;7.246;2024-01-30T07:59:34;8.50;99.90
68051;DHT22;54839;51.364;7.246;2024-01-30T08:02:00;8.50;99.90
68051;DHT22;54839;51.364;7.246;2024-01-30T08:04:25;8.70;99.90
68051;DHT22;54839;51.364;7.246;2024-01-30T08:06:51;8.80;99.90
68051;DHT22;54839;51.364;7.246;2024-01-30T08:09:16;8.90;99.90
68051;DHT22;54839;51.364;7.246;2024-01-30T08:11:42;8.80;99.90
68051;DHT22;54839;51.364;7.246;2024-01-30T08:14:08;9.00;99.90
68051;DHT22;54839;51.364;7.246;2024-01-30T08:16:33;8.90;99.90
68051;DHT22;54839;51.364;7.246;2024-01-30T08:18:59;9.00;99.90
68051;DHT22;54839;51.364;7.246;2024-01-30T08:21:26;8.90;99.90
68051;DHT22;54839;51.364;7.246;2024-01-30T08:23:51;8.90;99.90
68051;DHT22;54839;51.364;7.246;2024-01-30T08:26:17;8.90;99.90
68051;DHT22;54839;51.364;7.246;2024-01-30T08:28:43;9.10;99.90
68051;DHT22;54839;51.364;7.246;2024-01-30T08:31:10;9.00;99.90
68051;DHT22;54839;51.364;7.246;2024-01-30T08:33:37;9.10;99.90
68051;DHT22;54839;51.364;7.246;2024-01-30T08:36:03;9.00;99.90
68051;DHT22;54839;51.364;7.246;2024-01-30T08:38:29;9.10;99.90
68051;DHT22;54839;51.364;7.246;2024-01-30T08:40:55;9.10;99.90
68051;DHT22;54839;51.364;7.246;2024-01-30T08:43:21;9.10;99.90
68051;DHT22;54839;51.364;7.246;2024-01-30T08:45:47;9.20;99.90
68051;DHT22;54839;51.364;7.246;2024-01-30T08:48:12;9.20;99.90
68051;DHT22;54839;51.364;7.246;2024-01-30T08:50:38;9.30;99.90
68051;DHT22;54839;51.364;7.246;2024-01-30T08:53:04;9.30;99.90
68051;DHT22;54839;51.364;7.246;2024-01-30T08:55:29;9.40;99.90
68051;DHT22;54839;51.364;7.246;2024-01-30T08:57:55;9.50;99.90
68051;DHT22;54839;51.364;7.246;2024-01-30T09:00:21;9.50;99.90
68051;DHT22;54839;51.364;7.246;2024-01-30T09:02:46;9.50;99.90
68051;DHT22;54839;51.364;7.246;2024-01-30T09:05:12;9.60;99.90
68051;DHT22;54839;51.364;7.246;2024-01-30T09:07:38;9.60;99.90
68051;DHT22;54839;51.364;7.246;2024-01-30T09:10:04;9.70;99.90
68051;DHT22;54839;51.364;7.246;2024-01-30T09:12:30;9.80;99.90
68051;DHT22;54839;51.364;7.246;2024-01-30T09:14:56;9.80;99.90
68051;DHT22;54839;51.364;7.246;2024-01-30T09:17:21;9.80;99.90
68051;DHT22;54839;51.364;7.246;2024-01-30T09:19:47;9.90;99.90
68051;DHT22;54839;51.364;7.246;2024-01-30T09:22:12;9.80;99.90
68051;DHT22;54839;51.364;7.246;2024-01-30T09:24:38;10.00;99.90
68051;DHT22;54839;51.364;7.246;2024-01-30T09:27:04;10.00;99.90
68051;DHT22;54839;51.364;7.246;2024-01-30T09:29:29;10.10;99.90
68051;DHT22;54839;51.364;7.246;2024-01-30T09:31:55;10.10;99.90
68051;DHT22;54839;51.364;7.246;2024-01-30T09:34:21;10.10;99.90
68051;DHT22;54839;51.364;7.246;2024-01-30T09:36:46;10.00;99.90
68051;DHT22;54839;51.364;7.246;2024-01-30T09:39:12;10.10;99.90
68051;DHT22;54839;51.364;7.246;2024-01-30T09:41:49;10.10;99.90
68051;DHT22;54839;51.364;7.246;2024-01-30T09:44:17;10.20;99.90
68051;DHT22;54839;51.364;7.246;2024-01-30T09:46:47;10.30;99.90
68051;DHT22;54839;51.364;7.246;2024-01-30T09:49:13;10.40;99.90
68051;DHT22;54839;51.364;7.246;2024-01-30T09:51:40;10.60;99.90
68051;DHT22;54839;51.364;7.246;2024-01-30T09:54:08;10.70;99.90
68051;DHT22;54839;51.364;7.246;2024-01-30T09:56:33;10.70;99.90
68051;DHT22;54839;51.364;7.246;2024-01-30T09:58:59;10.60;99.90
68051;DHT22;54839;51.364;7.246;2024-01-30T10:01:25;10.60;99.90
68051;DHT22;54839;51.364;7.246;2024-01-30T10:03:51;10.60;99.90
68051;DHT22;54839;51.364;7.246;2024-01-30T10:06:19;10.70;99.90
68051;DHT22;54839;51.364;7.246;2024-01-30T10:08:46;10.80;99.90
68051;DHT22;54839;51.364;7.246;2024-01-30T10:11:11;10.80;99.90
68051;DHT22;54839;51.364;7.246;2024-01-30T10:13:38;10.90;99.90
68051;DHT22;54839;51.364;7.246;2024-01-30T10:16:05;10.90;99.90
68051;DHT22;54839;51.364;7.246;2024-01-30T10:18:32;10.90;99.90
68051;DHT22;54839;51.364;7.246;2024-01-30T10:20:59;10.80;99.90
68051;DHT22;54839;51.364;7.246;2024-01-30T10:23:24;11.00;99.90
68051;DHT22;54839;51.364;7.246;2024-01-30T10:25:51;11.10;99.90
68051;DHT22;54839;51.364;7.246;2024-01-30T10:28:17;11.20;99.90
68051;DHT22;54839;51.364;7.246;2024-01-30T10:30:43;11.40;99.90
68051;DHT22;54839;51.364;7.246;2024-01-30T10:33:09;11.50;99.90
68051;DHT22;54839;51.364;7.246;2024-01-30T10:35:35;11.40;99.90
68051;DHT22;54839;51.364;7.246;2024-01-30T10:38:00;11.30;99.90
68051;DHT22;54839;51.364;7.246;2024-01-30T10:40:29;11.50;99.90
68051;DHT22;54839;51.364;7.246;2024-01-30T10:42:56;11.50;99.90
68051;DHT22;54839;51.364;7.246;2024-01-30T10:45:22;11.70;99.90
68051;DHT22;54839;51.364;7.246;2024-01-30T10:47:54;11.80;99.90
68051;DHT22;54839;51.364;7.246;2024-01-30T10:50:24;12.00;99.90
68051;DHT22;54839;51.364;7.246;2024-01-30T10:52:50;12.20;99.90
68051;DHT22;54839;51.364;7.246;2024-01-30T10:55:16;12.30;99.90
68051;DHT22;54839;51.364;7.246;2024-01-30T10:57:43;12.40;99.90
68051;DHT22;54839;51.364;7.246;2024-01-30T11:00:11;12.50;99.90
68051;DHT22;54839;51.364;7.246;2024-01-30T11:02:45;12.60;99.90
68051;DHT22;54839;51.364;7.246;2024-01-30T11:05:11;12.70;99.90
68051;DHT22;54839;51.364;7.246;2024-01-30T11:07:39;12.90;99.90
68051;DHT22;54839;51.364;7.246;2024-01-30T11:10:07;13.20;99.90
68051;DHT22;54839;51.364;7.246;2024-01-30T11:12:38;13.20;99.90
68051;DHT22;54839;51.364;7.246;2024-01-30T11:15:18;13.30;99.90
68051;DHT22;54839;51.364;7.246;2024-01-30T11:17:51;12.90;99.90
68051;DHT22;54839;51.364;7.246;2024-01-30T11:20:29;12.70;99.90
68051;DHT22;54839;51.364;7.246;2024-01-30T11:22:58;12.60;99.90
68051;DHT22;54839;51.364;7.246;2024-01-30T11:25:25;12.70;99.90
68051;DHT22;54839;51.364;7.246;2024-01-30T11:27:55;12.80;99.90
68051;DHT22;54839;51.364;7.246;2024-01-30T11:33:07;12.90;99.90
68051;DHT22;54839;51.364;7.246;2024-01-30T11:35:38;12.90;99.90
68051;DHT22;54839;51.364;7.246;2024-01-30T11:38:06;13.00;99.90
68051;DHT22;54839;51.364;7.246;2024-01-30T11:40:33;12.70;99.90
68051;DHT22;54839;51.364;7.246;2024-01-30T11:43:00;12.80;99.90
68051;DHT22;54839;51.364;7.246;2024-01-30T11:45:26;12.70;99.90
68051;DHT22;54839;51.364;7.246;2024-01-30T11:47:53;12.90;99.90
68051;DHT22;54839;51.364;7.246;2024-01-30T11:50:19;12.70;99.90
68051;DHT22;54839;51.364;7.246;2024-01-30T11:52:45;12.50;99.90
68051;DHT22;54839;51.364;7.246;2024-01-30T11:55:11;12.60;99.90
68051;DHT22;54839;51.364;7.246;2024-01-30T11:57:37;12.80;99.90
68051;DHT22;54839;51.364;7.246;2024-01-30T12:00:04;12.70;99.90
68051;DHT22;54839;51.364;7.246;2024-01-30T12:02:38;12.70;99.90
68051;DHT22;54839;51.364;7.246;2024-01-30T12:05:08;12.60;99.90
68051;DHT22;54839;51.364;7.246;2024-01-30T12:07:34;12.70;99.90
68051;DHT22;54839;51.364;7.246;2024-01-30T12:10:00;12.70;99.90
68051;DHT22;54839;51.364;7.246;2024-01-30T12:12:27;12.70;99.90
68051;DHT22;54839;51.364;7.246;2024-01-30T12:14:53;12.60;99.90
68051;DHT22;54839;51.364;7.246;2024-01-30T12:17:28;12.40;99.90
68051;DHT22;54839;51.364;7.246;2024-01-30T12:20:11;12.40;99.90
68051;DHT22;54839;51.364;7.246;2024-01-30T12:22:39;12.30;99.90
68051;DHT22;54839;51.364;7.246;2024-01-30T12:25:08;12.20;99.90
68051;DHT22;54839;51.364;7.246;2024-01-30T12:27:34;12.20;99.90
68051;DHT22;54839;51.364;7.246;2024-01-30T12:30:00;12.20;99.90
68051;DHT22;54839;51.364;7.246;2024-01-30T12:32:26;12.10;99.90
68051;DHT22;54839;51.364;7.246;2024-01-30T12:34:56;12.10;99.90
68051;DHT22;54839;51.364;7.246;2024-01-30T12:37:22;12.00;99.90
68051;DHT22;54839;51.364;7.246;2024-01-30T12:39:51;12.00;99.90
68051;DHT22;54839;51.364;7.246;2024-01-30T12:42:18;11.90;99.90
68051;DHT22;54839;51.364;7.246;2024-01-30T12:44:44;11.80;99.90
68051;DHT22;54839;51.364;7.246;2024-01-30T12:47:10;11.90;99.90
68051;DHT22;54839;51.364;7.246;2024-01-30T12:49:36;12.00;99.90
68051;DHT22;54839;51.364;7.246;2024-01-30T12:52:02;11.90;99.90
68051;DHT22;54839;51.364;7.246;2024-01-30T12:54:28;11.80;99.90
68051;DHT22;54839;51.364;7.246;2024-01-30T12:56:53;11.80;99.90
68051;DHT22;54839;51.364;7.246;2024-01-30T12:59:19;11.70;99.90
68051;DHT22;54839;51.364;7.246;2024-01-30T13:01:45;11.60;99.90
68051;DHT22;54839;51.364;7.246;2024-01-30T13:04:11;11.60;99.90
68051;DHT22;54839;51.364;7.246;2024-01-30T13:06:37;11.70;99.90
68051;DHT22;54839;51.364;7.246;2024-01-30T13:09:03;11.70;99.90
68051;DHT22;54839;51.364;7.246;2024-01-30T13:11:28;11.60;99.90
68051;DHT22;54839;51.364;7.246;2024-01-30T13:13:54;11.50;99.90
68051;DHT22;54839;51.364;7.246;2024-01-30T13:16:20;11.50;99.90
68051;DHT22;54839;51.364;7.246;2024-01-30T13:18:45;11.50;99.90
68051;DHT22;54839;51.364;7.246;2024-01-30T13:21:11;11.60;99.90
68051;DHT22;54839;51.364;7.246;2024-01-30T13:23:36;11.50;99.90
68051;DHT22;54839;51.364;7.246;2024-01-30T13:26:02;11.60;99.90
68051;DHT22;54839;51.364;7.246;2024-01-30T13:28:28;11.50;99.90
68051;DHT22;54839;51.364;7.246;2024-01-30T13:30:53;11.50;99.90
68051;DHT22;54839;51.364;7.246;2024-01-30T13:33:19;11.50;99.90
68051;DHT22;54839;51.364;7.246;2024-01-30T13:35:45;11.40;99.90
68051;DHT22;54839;51.364;7.246;2024-01-30T13:38:10;11.40;99.90
68051;DHT22;54839;51.364;7.246;2024-01-30T13:40:36;11.40;99.90
68051;DHT22;54839;51.364;7.246;2024-01-30T13:43:01;11.30;99.90
68051;DHT22;54839;51.364;7.246;2024-01-30T13:45:27;11.30;99.90
68051;DHT22;54839;51.364;7.246;2024-01-30T13:47:53;11.20;99.90
68051;DHT22;54839;51.364;7.246;2024-01-30T13:50:18;11.30;99.90
68051;DHT22;54839;51.364;7.246;2024-01-30T13:52:44;11.20;99.90
68051;DHT22;54839;51.364;7.246;2024-01-30T13:55:10;11.20;99.90
68051;DHT22;54839;51.364;7.246;2024-01-30T13:57:39;11.20;99.90
68051;DHT22;54839;51.364;7.246;2024-01-30T14:00:05;11.20;99.90
68051;DHT22;54839;51.364;7.246;2024-01-30T14:02:32;11.20;99.90
68051;DHT22;54839;51.364;7.246;2024-01-30T14:04:57;11.20;99.90
68051;DHT22;54839;51.364;7.246;2024-01-30T14:07:23;11.10;99.90
68051;DHT22;54839;51.364;7.246;2024-01-30T14:09:49;11.20;99.90
68051;DHT22;54839;51.364;7.246;2024-01-30T14:12:15;11.20;99.90
68051;DHT22;54839;51.364;7.246;2024-01-30T14:14:41;11.20;99.90
68051;DHT22;54839;51.364;7.246;2024-01-30T14:17:07;11.20;99.90
68051;DHT22;54839;51.364;7.246;2024-01-30T14:19:34;11.30;99.90
68051;DHT22;54839;51.364;7.246;2024-01-30T14:21:59;11.30;99.90
68051;DHT22;54839;51.364;7.246;2024-01-30T14:24:25;11.20;99.90
68051;DHT22;54839;51.364;7.246;2024-01-30T14:26:51;11.30;99.90
68051;DHT22;54839;51.364;7.246;2024-01-30T14:29:16;11.40;99.90
68051;DHT22;54839;51.364;7.246;2024-01-30T14:31:42;11.40;99.90
68051;DHT22;54839;51.364;7.246;2024-01-30T14:34:08;11.40;99.90
68051;DHT22;54839;51.364;7.246;2024-01-30T14:36:36;11.40;99.90
68051;DHT22;54839;51.364;7.246;2024-01-30T14:39:02;11.40;99.90
68051;DHT22;54839;51.364;7.246;2024-01-30T14:41:29;11.40;99.90
68051;DHT22;54839;51.364;7.246;2024-01-30T14:43:54;11.50;99.90
68051;DHT22;54839;51.364;7.246;2024-01-30T14:46:21;11.50;99.90
68051;DHT22;54839;51.364;7.246;2024-01-30T14:48:47;11.50;99.90
68051;DHT22;54839;51.364;7.246;2024-01-30T14:51:12;11.40;99.90
68051;DHT22;54839;51.364;7.246;2024-01-30T14:53:39;11.50;99.90
68051;DHT22;54839;51.364;7.246;2024-01-30T14:56:05;11.50;99.90
68051;DHT22;54839;51.364;7.246;2024-01-30T14:58:30;11.40;99.90
68051;DHT22;54839;51.364;7.246;2024-01-30T15:00:56;11.40;99.90
68051;DHT22;54839;51.364;7.246;2024-01-30T15:03:22;11.40;99.90
68051;DHT22;54839;51.364;7.246;2024-01-30T15:05:48;11.40;99.90
68051;DHT22;54839;51.364;7.246;2024-01-30T15:08:13;11.30;99.90
68051;DHT22;54839;51.364;7.246;2024-01-30T15:10:39;11.20;99.90
68051;DHT22;54839;51.364;7.246;2024-01-30T15:13:05;11.20;99.90
68051;DHT22;54839;51.364;7.246;2024-01-30T15:15:30;11.30;99.90
68051;DHT22;54839;51.364;7.246;2024-01-30T15:17:56;11.20;99.90
68051;DHT22;54839;51.364;7.246;2024-01-30T15:20:23;11.20;99.90
68051;DHT22;54839;51.364;7.246;2024-01-30T15:22:49;11.20;99.90
68051;DHT22;54839;51.364;7.246;2024-01-30T15:25:14;11.20;99.90
68051;DHT22;54839;51.364;7.246;2024-01-30T15:27:40;11.10;99.90
68051;DHT22;54839;51.364;7.246;2024-01-30T15:30:07;11.10;99.90
68051;DHT22;54839;51.364;7.246;2024-01-30T15:32:32;11.10;99.90
68051;DHT22;54839;51.364;7.246;2024-01-30T15:35:00;11.10;99.90
68051;DHT22;54839;51.364;7.246;2024-01-30T15:37:28;11.10;99.90